createdAt,value
2022-07-29T00:01:05.756Z,13.52
2022-07-29T00:06:11.888Z,13.42
2022-07-29T00:11:17.806Z,13.39
2022-07-29T00:16:24.099Z,13.37
2022-07-29T00:21:30.579Z,13.50
2022-07-29T00:26:36.553Z,13.61
2022-07-29T00:31:42.688Z,13.57
2022-07-29T00:36:48.776Z,13.55
2022-07-29T00:41:54.748Z,13.60
2022-07-29T00:47:00.708Z,13.69
2022-07-29T00:52:08.773Z,13.80
2022-07-29T00:57:15.570Z,13.92
2022-07-29T01:02:21.610Z,13.99
2022-07-29T01:07:28.965Z,14.01
2022-07-29T01:12:36.680Z,14.07
2022-07-29T01:17:53.534Z,14.14
2022-07-29T01:23:23.664Z,14.21
2022-07-29T01:29:08.437Z,14.24
2022-07-29T01:34:25.992Z,14.21
2022-07-29T01:39:36.029Z,14.19
2022-07-29T01:44:47.381Z,14.21
2022-07-29T01:49:56.252Z,14.19
2022-07-29T01:55:07.535Z,14.13
2022-07-29T02:00:16.194Z,14.11
2022-07-29T02:05:24.688Z,14.08
2022-07-29T02:10:33.690Z,14.08
2022-07-29T02:15:42.792Z,14.01
2022-07-29T02:20:53.942Z,13.95
2022-07-29T02:26:00.803Z,13.90
2022-07-29T02:31:07.733Z,13.85
2022-07-29T02:36:14.725Z,13.81
2022-07-29T02:41:24.272Z,13.83
2022-07-29T02:46:33.922Z,13.75
2022-07-29T02:51:45.077Z,13.68
2022-07-29T02:56:54.662Z,13.56
2022-07-29T03:02:03.136Z,13.53
2022-07-29T03:07:10.088Z,13.58
2022-07-29T03:12:17.115Z,13.59
2022-07-29T03:17:24.271Z,13.56
2022-07-29T03:22:31.630Z,13.56
2022-07-29T03:27:37.673Z,13.61
2022-07-29T03:32:44.435Z,13.67
2022-07-29T03:37:50.933Z,13.69
2022-07-29T03:42:59.054Z,13.74
2022-07-29T03:48:09.445Z,13.82
2022-07-29T03:53:15.850Z,13.93
2022-07-29T03:58:22.261Z,14.02
2022-07-29T04:03:28.419Z,14.12
2022-07-29T04:08:34.467Z,14.30
2022-07-29T04:13:40.683Z,14.50
2022-07-29T04:18:46.562Z,14.64
2022-07-29T04:23:53.938Z,14.78
2022-07-29T04:29:00.043Z,15.42
2022-07-29T04:34:06.301Z,17.69
2022-07-29T04:39:12.411Z,17.72
2022-07-29T04:44:19.638Z,17.64
2022-07-29T04:49:26.052Z,17.79
2022-07-29T04:54:31.929Z,18.02
2022-07-29T04:59:37.925Z,18.39
2022-07-29T05:04:43.985Z,20.76
2022-07-29T05:09:50.051Z,24.40
2022-07-29T05:14:56.153Z,27.02
2022-07-29T05:20:02.120Z,29.58
2022-07-29T05:25:10.556Z,31.66
2022-07-29T05:30:16.708Z,33.20
2022-07-29T05:35:22.765Z,34.23
2022-07-29T05:40:28.643Z,34.81
2022-07-29T05:45:34.841Z,35.68
2022-07-29T05:50:55.793Z,36.36
2022-07-29T05:56:06.445Z,37.00
2022-07-29T06:01:12.357Z,37.14
2022-07-29T06:06:18.714Z,37.06
2022-07-29T06:11:24.661Z,37.52
2022-07-29T06:16:30.876Z,38.13
2022-07-29T06:21:38.660Z,38.17
2022-07-29T06:26:48.279Z,38.02
2022-07-29T06:31:54.203Z,37.93
2022-07-29T06:37:00.017Z,38.19
2022-07-29T06:42:06.658Z,38.59
2022-07-29T06:47:13.228Z,38.72
2022-07-29T06:52:19.655Z,38.60
2022-07-29T06:57:25.633Z,39.10
2022-07-29T07:02:31.657Z,38.83
2022-07-29T07:07:40.391Z,38.74
2022-07-29T07:12:46.268Z,39.14
2022-07-29T07:17:52.203Z,39.47
2022-07-29T07:22:58.094Z,39.77
2022-07-29T07:28:04.279Z,39.97
2022-07-29T07:33:10.310Z,40.41
2022-07-29T07:38:14.707Z,40.44
2022-07-29T07:43:20.685Z,40.63
2022-07-29T07:48:25.013Z,41.15
2022-07-29T07:53:31.529Z,40.90
2022-07-29T07:58:39.545Z,41.18
2022-07-29T08:03:45.842Z,40.89
2022-07-29T08:08:52.068Z,40.33
2022-07-29T08:13:58.339Z,39.82
2022-07-29T08:19:04.202Z,40.41
2022-07-29T08:24:28.974Z,40.35
2022-07-29T08:29:35.081Z,40.54
2022-07-29T08:34:47.277Z,41.11
2022-07-29T08:39:53.280Z,40.54
2022-07-29T08:44:59.746Z,39.09
2022-07-29T08:50:06.683Z,39.79
2022-07-29T08:55:13.790Z,40.29
2022-07-29T09:00:22.358Z,39.77
2022-07-29T09:05:27.727Z,37.56
2022-07-29T09:10:34.036Z,37.08
2022-07-29T09:15:40.143Z,35.50
2022-07-29T09:21:13.715Z,36.23
2022-07-29T09:26:19.578Z,35.25
2022-07-29T09:31:33.661Z,36.17
2022-07-29T09:36:44.614Z,36.14
2022-07-29T09:41:55.624Z,36.44
2022-07-29T09:47:09.550Z,36.75
2022-07-29T09:52:15.522Z,37.21
2022-07-29T09:57:31.220Z,36.35
2022-07-29T10:02:39.793Z,35.61
2022-07-29T10:07:53.623Z,35.36
2022-07-29T10:13:06.441Z,33.98
2022-07-29T10:18:17.512Z,32.85
2022-07-29T10:23:23.635Z,32.42
2022-07-29T10:28:30.733Z,31.69
2022-07-29T10:33:56.393Z,30.99
2022-07-29T10:39:15.508Z,30.44
2022-07-29T10:44:23.178Z,30.40
2022-07-29T10:49:31.097Z,30.84
2022-07-29T10:54:44.066Z,31.26
2022-07-29T10:59:52.945Z,31.84
2022-07-29T11:05:07.277Z,31.99
2022-07-29T11:10:31.117Z,32.36
2022-07-29T11:15:58.279Z,32.38
2022-07-29T11:21:04.353Z,32.65
2022-07-29T11:26:26.110Z,31.95
2022-07-29T11:31:39.165Z,31.03
2022-07-29T11:37:18.429Z,30.53
2022-07-29T11:42:53.260Z,30.05
2022-07-29T11:48:27.731Z,30.11
2022-07-29T11:53:29.142Z,29.94
2022-07-29T11:58:40.110Z,29.60
2022-07-29T12:03:46.918Z,29.63
2022-07-29T12:08:57.080Z,29.58
2022-07-29T12:14:03.893Z,30.01
2022-07-29T12:19:10.028Z,29.84
2022-07-29T12:24:16.846Z,29.13
2022-07-29T12:29:34.459Z,28.33
2022-07-29T12:34:41.965Z,28.20
2022-07-29T12:39:48.204Z,28.29
2022-07-29T12:44:54.010Z,28.74
2022-07-29T12:50:13.114Z,28.51
2022-07-29T12:55:39.092Z,28.27
2022-07-29T13:00:45.891Z,27.88
2022-07-29T13:05:53.767Z,27.74
2022-07-29T13:10:59.816Z,27.81
2022-07-29T13:16:10.167Z,27.58
2022-07-29T13:21:18.958Z,27.36
2022-07-29T13:26:25.105Z,27.06
2022-07-29T13:31:31.409Z,26.92
2022-07-29T13:36:41.505Z,27.01
2022-07-29T13:41:47.892Z,27.21
2022-07-29T13:46:55.161Z,27.35
2022-07-29T13:52:01.357Z,27.57
2022-07-29T13:57:08.282Z,27.33
2022-07-29T14:02:15.597Z,27.24
2022-07-29T14:07:21.849Z,27.42
2022-07-29T14:12:27.930Z,27.53
2022-07-29T14:17:34.000Z,27.34
2022-07-29T14:22:42.624Z,27.04
2022-07-29T14:27:51.493Z,26.76
2022-07-29T14:32:57.481Z,26.45
2022-07-29T14:38:03.362Z,26.34
2022-07-29T14:43:09.170Z,26.17
2022-07-29T14:48:15.476Z,26.06
2022-07-29T14:53:21.454Z,26.01
2022-07-29T14:58:27.369Z,25.91
2022-07-29T15:03:33.907Z,25.81
2022-07-29T15:08:39.800Z,25.78
2022-07-29T15:13:45.707Z,25.84
2022-07-29T15:18:51.904Z,25.78
2022-07-29T15:23:58.126Z,25.66
2022-07-29T15:29:04.173Z,25.50
2022-07-29T15:34:10.062Z,25.36
2022-07-29T15:39:16.645Z,25.21
2022-07-29T15:44:22.857Z,25.07
2022-07-29T15:49:47.689Z,24.84
2022-07-29T15:54:56.799Z,24.71
2022-07-29T16:00:03.204Z,24.55
2022-07-29T16:05:14.044Z,24.36
2022-07-29T16:10:20.062Z,24.27
2022-07-29T16:15:26.022Z,24.11
2022-07-29T16:20:31.982Z,24.01
2022-07-29T16:25:59.246Z,23.97
2022-07-29T16:31:06.016Z,23.95
2022-07-29T16:36:13.182Z,23.96
2022-07-29T16:41:19.462Z,23.90
2022-07-29T16:46:25.871Z,23.84
2022-07-29T16:51:32.134Z,23.77
2022-07-29T16:56:38.512Z,23.69
2022-07-29T17:01:46.504Z,23.71
2022-07-29T17:06:52.770Z,23.67
2022-07-29T17:11:58.610Z,23.65
2022-07-29T17:17:12.271Z,23.61
2022-07-29T17:22:20.119Z,23.55
2022-07-29T17:27:26.093Z,23.50
2022-07-29T17:32:36.380Z,23.47
2022-07-29T17:37:42.305Z,23.44
2022-07-29T17:42:48.273Z,23.35
2022-07-29T17:47:54.146Z,23.22
2022-07-29T17:52:59.899Z,23.14
2022-07-29T17:58:05.737Z,23.01
2022-07-29T18:03:12.386Z,22.85
2022-07-29T18:08:18.478Z,22.71
2022-07-29T18:13:24.713Z,22.58
2022-07-29T18:18:30.553Z,22.43
2022-07-29T18:23:36.392Z,22.27
2022-07-29T18:28:42.556Z,22.07
2022-07-29T18:33:48.818Z,21.89
2022-07-29T18:38:54.766Z,21.72
2022-07-29T18:44:00.960Z,21.53
2022-07-29T18:49:07.412Z,21.33
2022-07-29T18:54:13.360Z,21.13
2022-07-29T18:59:21.414Z,20.97
2022-07-29T19:04:27.697Z,20.81
2022-07-29T19:09:34.783Z,20.66
2022-07-29T19:14:49.700Z,20.52
2022-07-29T19:19:55.889Z,20.40
2022-07-29T19:25:01.914Z,20.30
2022-07-29T19:30:09.859Z,20.21
2022-07-29T19:35:25.243Z,20.11
2022-07-29T19:40:31.706Z,19.98
2022-07-29T19:45:38.205Z,19.88
2022-07-29T19:50:45.051Z,19.77
2022-07-29T19:55:51.263Z,19.66
2022-07-29T20:00:57.106Z,19.56
2022-07-29T20:06:02.978Z,19.48
2022-07-29T20:11:09.173Z,19.38
2022-07-29T20:16:15.311Z,19.27
2022-07-29T20:21:23.139Z,19.18
2022-07-29T20:26:29.568Z,19.07
2022-07-29T20:31:36.280Z,18.98
2022-07-29T20:36:42.406Z,18.87
2022-07-29T20:41:52.695Z,18.78
2022-07-29T20:46:59.149Z,18.70
2022-07-29T20:52:06.053Z,18.63
2022-07-29T20:57:11.954Z,18.57
2022-07-29T21:02:17.831Z,18.53
2022-07-29T21:07:23.814Z,18.48
2022-07-29T21:12:30.379Z,18.44
2022-07-29T21:17:38.877Z,18.38
2022-07-29T21:22:44.968Z,18.32
2022-07-29T21:28:10.342Z,18.26
2022-07-29T21:33:16.500Z,18.21
2022-07-29T21:38:22.617Z,18.16
2022-07-29T21:43:28.938Z,18.12
2022-07-29T21:48:35.013Z,18.11
2022-07-29T21:53:42.441Z,18.10
2022-07-29T21:58:49.958Z,18.08
2022-07-29T22:03:56.038Z,18.05
2022-07-29T22:09:01.902Z,18.02
2022-07-29T22:14:08.094Z,18.00
2022-07-29T22:19:14.493Z,17.95
2022-07-29T22:24:20.668Z,17.90
2022-07-29T22:29:27.371Z,17.86
2022-07-29T22:34:37.800Z,17.80
2022-07-29T22:39:44.050Z,17.76
2022-07-29T22:44:50.357Z,17.70
2022-07-29T22:49:56.721Z,17.66
2022-07-29T22:55:02.508Z,17.63
2022-07-29T23:00:10.796Z,17.61
2022-07-29T23:05:17.121Z,17.61
2022-07-29T23:10:23.370Z,17.60
2022-07-29T23:15:29.304Z,17.59
2022-07-29T23:20:35.725Z,17.58
2022-07-29T23:25:41.605Z,17.55
2022-07-29T23:30:47.530Z,17.54
2022-07-29T23:35:53.557Z,17.52
2022-07-29T23:41:01.576Z,17.48
2022-07-29T23:46:07.593Z,17.46
2022-07-29T23:51:14.573Z,17.43
2022-07-29T23:56:20.680Z,17.43
